createdAt,value
2022-12-31T00:03:01.497Z,59.33
2022-12-31T00:09:06.852Z,62.27
2022-12-31T00:15:09.283Z,45.67
2022-12-31T00:21:12.745Z,46.27
2022-12-31T00:27:15.284Z,59.87
2022-12-31T00:33:18.931Z,43.73
2022-12-31T00:39:21.150Z,47.30
2022-12-31T00:45:24.609Z,50.30
2022-12-31T00:51:31.082Z,45.87
2022-12-31T00:57:33.519Z,41.27
2022-12-31T01:03:36.029Z,42.43
2022-12-31T01:09:38.459Z,45.30
2022-12-31T01:15:40.995Z,48.90
2022-12-31T01:21:44.398Z,39.70
2022-12-31T01:27:46.846Z,40.30
2022-12-31T01:33:49.305Z,43.63
2022-12-31T01:39:51.819Z,42.83
2022-12-31T01:45:55.370Z,33.13
2022-12-31T01:52:03.783Z,35.50
2022-12-31T01:58:12.275Z,40.03
2022-12-31T02:04:16.096Z,42.17
2022-12-31T02:10:18.239Z,35.60
2022-12-31T02:16:32.758Z,34.30
2022-12-31T02:23:03.420Z,31.67
2022-12-31T02:29:29.844Z,43.43
2022-12-31T02:35:49.357Z,33.70
2022-12-31T02:41:52.086Z,35.10
2022-12-31T02:48:06.447Z,38.57
2022-12-31T02:54:38.011Z,37.40
2022-12-31T03:01:05.724Z,35.90
2022-12-31T03:07:23.129Z,50.77
2022-12-31T03:13:25.559Z,38.60
2022-12-31T03:19:46.088Z,28.73
2022-12-31T03:25:48.569Z,28.33
2022-12-31T03:31:51.074Z,31.40
2022-12-31T03:37:54.472Z,37.17
2022-12-31T03:43:56.991Z,35.30
2022-12-31T03:49:59.443Z,29.43
2022-12-31T03:56:01.873Z,27.80
2022-12-31T04:02:04.488Z,33.67
2022-12-31T04:08:07.448Z,28.33
2022-12-31T04:14:10.307Z,35.70
2022-12-31T04:20:12.761Z,35.87
2022-12-31T04:26:14.737Z,34.53
2022-12-31T04:32:16.703Z,43.40
2022-12-31T04:38:18.563Z,34.17
2022-12-31T04:44:20.799Z,33.40
2022-12-31T04:50:22.566Z,40.20
2022-12-31T04:56:25.576Z,31.33
2022-12-31T05:02:28.129Z,32.00
2022-12-31T05:08:31.495Z,32.97
2022-12-31T05:14:33.953Z,37.17
2022-12-31T05:20:36.393Z,31.93
2022-12-31T05:26:38.178Z,32.43
2022-12-31T05:32:40.347Z,40.30
2022-12-31T05:38:42.790Z,35.50
2022-12-31T05:44:45.239Z,32.70
2022-12-31T05:50:47.730Z,25.33
2022-12-31T05:56:49.788Z,41.63
2022-12-31T06:02:51.736Z,40.07
2022-12-31T06:08:53.601Z,31.20
2022-12-31T06:14:57.648Z,30.30
2022-12-31T06:21:00.053Z,26.40
2022-12-31T06:27:02.507Z,25.93
2022-12-31T06:33:07.283Z,29.03
2022-12-31T06:39:09.469Z,40.47
2022-12-31T06:45:11.955Z,31.97
2022-12-31T06:51:20.414Z,42.70
2022-12-31T06:57:23.912Z,38.90
2022-12-31T07:03:57.529Z,45.33
2022-12-31T07:10:41.135Z,45.47
2022-12-31T07:17:09.695Z,43.33
2022-12-31T07:23:12.173Z,50.03
2022-12-31T07:29:28.666Z,49.87
2022-12-31T07:35:55.241Z,44.67
2022-12-31T07:42:53.952Z,52.37
2022-12-31T07:48:56.483Z,45.97
2022-12-31T07:54:58.863Z,49.40
2022-12-31T08:01:02.483Z,46.57
2022-12-31T08:07:17.850Z,50.63
2022-12-31T08:13:19.910Z,53.70
2022-12-31T08:19:28.811Z,44.90
2022-12-31T08:26:09.214Z,47.47
2022-12-31T08:32:23.943Z,48.87
2022-12-31T08:38:50.481Z,43.20
2022-12-31T08:45:11.027Z,41.53
2022-12-31T08:51:21.536Z,44.20
2022-12-31T08:57:40.038Z,39.40
2022-12-31T09:04:23.687Z,52.40
2022-12-31T09:10:34.912Z,33.93
2022-12-31T09:16:44.684Z,38.23
2022-12-31T09:22:47.118Z,35.40
2022-12-31T09:28:57.589Z,38.40
2022-12-31T09:35:35.210Z,35.47
2022-12-31T09:42:25.863Z,38.77
2022-12-31T09:49:27.564Z,38.83
2022-12-31T09:55:37.074Z,40.17
2022-12-31T10:01:56.704Z,32.63
2022-12-31T10:07:59.055Z,36.60
2022-12-31T10:14:32.664Z,39.93
2022-12-31T10:21:05.222Z,43.00
2022-12-31T10:27:33.839Z,43.07
2022-12-31T10:33:48.348Z,38.40
2022-12-31T10:40:18.936Z,38.97
2022-12-31T10:46:48.531Z,34.87
2022-12-31T10:53:16.080Z,34.10
2022-12-31T10:59:44.985Z,32.07
2022-12-31T11:05:47.113Z,24.97
2022-12-31T11:12:10.650Z,23.03
2022-12-31T11:18:23.184Z,27.00
2022-12-31T11:24:26.622Z,19.90
2022-12-31T11:30:39.197Z,23.03
2022-12-31T11:36:52.664Z,13.50
2022-12-31T11:43:12.255Z,8.83
2022-12-31T11:49:43.801Z,8.03
2022-12-31T11:56:02.742Z,5.23
2022-12-31T12:02:18.438Z,6.47
2022-12-31T12:08:21.359Z,6.03
2022-12-31T12:14:41.872Z,5.53
2022-12-31T12:20:47.318Z,5.93
2022-12-31T12:26:52.813Z,5.47
2022-12-31T12:33:01.938Z,6.13
2022-12-31T12:39:07.409Z,7.43
2022-12-31T12:45:18.842Z,6.57
2022-12-31T12:51:26.930Z,7.23
2022-12-31T12:57:42.396Z,5.97
2022-12-31T13:04:32.926Z,6.37
2022-12-31T13:10:29.388Z,6.93
2022-12-31T13:16:37.890Z,12.87
2022-12-31T13:22:50.367Z,15.03
2022-12-31T13:28:53.795Z,23.90
2022-12-31T13:35:03.317Z,11.97
2022-12-31T13:41:28.850Z,8.73
2022-12-31T13:47:39.572Z,10.43
2022-12-31T13:54:04.928Z,9.13
2022-12-31T14:00:21.391Z,10.10
2022-12-31T14:06:35.930Z,9.60
2022-12-31T14:13:00.519Z,9.70
2022-12-31T14:19:32.478Z,11.37
2022-12-31T14:25:47.540Z,14.23
2022-12-31T14:31:50.085Z,19.10
2022-12-31T14:38:06.523Z,17.73
2022-12-31T14:44:37.119Z,13.57
2022-12-31T14:50:39.551Z,16.97
2022-12-31T14:56:46.075Z,13.87
2022-12-31T15:02:53.415Z,17.87
2022-12-31T15:09:31.138Z,45.37
2022-12-31T15:15:55.694Z,36.30
2022-12-31T15:22:34.327Z,27.73
2022-12-31T15:28:39.807Z,31.80
2022-12-31T15:34:44.219Z,9.80
2022-12-31T15:40:53.598Z,8.10
2022-12-31T15:47:08.276Z,8.97
2022-12-31T15:53:29.983Z,9.53
2022-12-31T15:59:34.449Z,7.40
2022-12-31T16:05:43.934Z,7.50
2022-12-31T16:11:50.305Z,5.50
2022-12-31T16:18:08.810Z,6.43
2022-12-31T16:24:31.353Z,5.90
2022-12-31T16:30:36.804Z,6.40
2022-12-31T16:36:39.259Z,5.57
2022-12-31T16:42:44.418Z,5.17
2022-12-31T16:49:23.373Z,5.23
2022-12-31T16:55:29.844Z,6.40
2022-12-31T17:01:35.430Z,5.10
2022-12-31T17:07:41.746Z,12.67
2022-12-31T17:13:46.215Z,10.27
2022-12-31T17:19:50.736Z,9.37
2022-12-31T17:26:12.231Z,10.17
2022-12-31T17:32:37.763Z,10.13
2022-12-31T17:38:40.227Z,8.00
2022-12-31T17:44:46.686Z,6.73
2022-12-31T17:50:53.146Z,6.10
2022-12-31T17:56:55.632Z,7.93
2022-12-31T18:02:58.143Z,8.10
2022-12-31T18:08:59.931Z,5.30
2022-12-31T18:15:01.994Z,5.03
2022-12-31T18:21:08.508Z,5.27
2022-12-31T18:27:19.004Z,7.33
2022-12-31T18:33:25.454Z,7.43
2022-12-31T18:39:27.990Z,6.07
2022-12-31T18:45:30.505Z,10.60
2022-12-31T18:51:33.914Z,9.23
2022-12-31T18:57:36.371Z,12.77
2022-12-31T19:03:38.842Z,12.07
2022-12-31T19:09:46.018Z,15.90
2022-12-31T19:15:51.808Z,13.27
2022-12-31T19:21:54.256Z,13.43
2022-12-31T19:27:56.779Z,12.47
2022-12-31T19:33:59.150Z,11.47
2022-12-31T19:40:03.689Z,11.70
2022-12-31T19:46:06.115Z,10.10
2022-12-31T19:52:08.579Z,12.43
2022-12-31T19:58:20.091Z,12.63
2022-12-31T20:04:22.581Z,10.80
2022-12-31T20:10:25.042Z,11.63
2022-12-31T20:16:27.559Z,11.33
2022-12-31T20:22:29.951Z,9.90
2022-12-31T20:28:32.485Z,11.20
2022-12-31T20:34:34.942Z,11.83
2022-12-31T20:40:42.893Z,48.57
2022-12-31T20:46:48.942Z,21.63
2022-12-31T20:52:51.408Z,15.50
2022-12-31T20:58:53.902Z,13.23
2022-12-31T21:04:56.432Z,15.83
2022-12-31T21:10:59.838Z,15.57
2022-12-31T21:17:02.276Z,19.70
2022-12-31T21:23:04.750Z,19.17
2022-12-31T21:29:07.228Z,14.23
2022-12-31T21:41:51.387Z,16.43
2022-12-31T21:48:11.919Z,16.50
2022-12-31T21:54:34.552Z,14.70
2022-12-31T22:00:56.087Z,19.60
2022-12-31T22:06:58.519Z,20.17
2022-12-31T22:13:01.004Z,60.57
2022-12-31T22:19:03.466Z,60.77
2022-12-31T22:25:06.924Z,35.40
2022-12-31T22:31:22.485Z,33.33
2022-12-31T22:37:55.497Z,48.27
2022-12-31T22:43:55.991Z,35.03
2022-12-31T22:50:02.946Z,43.27
2022-12-31T22:56:10.444Z,31.37
2022-12-31T23:02:12.892Z,29.83
2022-12-31T23:08:22.236Z,26.37
2022-12-31T23:14:44.160Z,17.50
2022-12-31T23:21:04.592Z,25.40
2022-12-31T23:27:07.973Z,20.57
2022-12-31T23:33:20.517Z,25.87
2022-12-31T23:39:22.961Z,29.27
2022-12-31T23:45:31.111Z,24.20
2022-12-31T23:51:36.904Z,22.13
2022-12-31T23:57:39.371Z,19.90
